createdAt,value
2018-09-22T00:01:17.977Z,80.97
2018-09-22T00:03:46.561Z,81.06
2018-09-22T00:06:16.025Z,81.11
2018-09-22T00:08:44.879Z,80.83
2018-09-22T00:11:13.405Z,80.77
2018-09-22T00:13:42.165Z,80.44
2018-09-22T00:16:10.929Z,80.35
2018-09-22T00:18:39.405Z,80.58
2018-09-22T00:21:08.118Z,80.52
2018-09-22T00:23:36.769Z,80.05
2018-09-22T00:26:05.293Z,79.95
2018-09-22T00:28:34.245Z,79.98
2018-09-22T00:31:02.767Z,79.79
2018-09-22T00:33:31.301Z,79.61
2018-09-22T00:36:01.448Z,79.60
2018-09-22T00:38:29.986Z,79.31
2018-09-22T00:41:05.262Z,78.79
2018-09-22T00:43:33.713Z,78.92
2018-09-22T00:46:02.166Z,79.15
2018-09-22T00:48:30.813Z,79.01
2018-09-22T00:50:59.325Z,78.87
2018-09-22T00:53:27.774Z,78.43
2018-09-22T00:55:57.805Z,78.19
2018-09-22T00:58:26.331Z,78.03
2018-09-22T01:00:54.832Z,78.10
2018-09-22T01:03:24.062Z,77.85
2018-09-22T01:05:52.544Z,77.58
2018-09-22T01:08:21.006Z,77.29
2018-09-22T01:10:49.841Z,77.19
2018-09-22T01:13:18.306Z,77.49
2018-09-22T01:15:46.789Z,77.49
2018-09-22T01:18:15.720Z,77.11
2018-09-22T01:20:44.621Z,77.37
2018-09-22T01:23:13.169Z,77.30
2018-09-22T01:25:42.341Z,76.96
2018-09-22T01:28:10.806Z,76.79
2018-09-22T01:30:39.289Z,77.18
2018-09-22T01:33:08.425Z,76.78
2018-09-22T01:35:36.893Z,76.66
2018-09-22T01:38:05.390Z,76.55
2018-09-22T01:40:34.372Z,76.56
2018-09-22T01:43:02.977Z,76.18
2018-09-22T01:45:31.885Z,76.35
2018-09-22T01:48:00.767Z,76.10
2018-09-22T01:50:29.246Z,76.29
2018-09-22T01:52:57.723Z,76.11
2018-09-22T01:55:27.721Z,76.33
2018-09-22T01:57:56.989Z,76.08
2018-09-22T02:00:25.589Z,76.08
2018-09-22T02:02:54.668Z,76.40
2018-09-22T02:05:23.713Z,75.95
2018-09-22T02:07:53.001Z,76.09
2018-09-22T02:10:21.728Z,76.00
2018-09-22T02:12:50.586Z,76.31
2018-09-22T02:15:19.488Z,75.93
2018-09-22T02:17:48.429Z,75.45
2018-09-22T02:20:16.922Z,75.81
2018-09-22T02:22:45.441Z,75.39
2018-09-22T02:25:14.384Z,74.99
2018-09-22T02:27:42.917Z,74.74
2018-09-22T02:30:11.629Z,74.64
2018-09-22T02:32:40.417Z,74.71
2018-09-22T02:35:08.949Z,74.75
2018-09-22T02:37:37.596Z,74.55
2018-09-22T02:40:06.542Z,74.51
2018-09-22T02:42:35.310Z,74.38
2018-09-22T02:45:04.246Z,74.19
2018-09-22T02:47:33.165Z,74.31
2018-09-22T02:50:01.726Z,73.95
2018-09-22T02:52:30.457Z,74.12
2018-09-22T02:54:59.245Z,73.55
2018-09-22T02:57:27.677Z,73.69
2018-09-22T02:59:57.056Z,73.12
2018-09-22T03:02:25.685Z,73.12
2018-09-22T03:04:54.182Z,73.47
2018-09-22T03:07:22.946Z,72.96
2018-09-22T03:09:51.525Z,73.07
2018-09-22T03:12:20.146Z,72.77
2018-09-22T03:14:49.034Z,72.72
2018-09-22T03:17:18.305Z,72.27
2018-09-22T03:19:46.770Z,72.47
2018-09-22T03:22:15.245Z,72.45
2018-09-22T03:24:44.380Z,72.27
2018-09-22T03:27:13.119Z,71.67
2018-09-22T03:29:41.578Z,71.35
2018-09-22T03:32:10.432Z,71.11
2018-09-22T03:34:38.937Z,70.79
2018-09-22T03:37:07.381Z,70.84
2018-09-22T03:39:36.282Z,70.85
2018-09-22T03:42:04.985Z,70.43
2018-09-22T03:44:33.759Z,70.29
2018-09-22T03:47:02.524Z,70.44
2018-09-22T03:49:30.965Z,70.51
2018-09-22T03:51:59.429Z,70.18
2018-09-22T03:54:28.337Z,70.23
2018-09-22T03:56:56.769Z,70.00
2018-09-22T03:59:25.305Z,69.91
2018-09-22T04:01:54.125Z,69.83
2018-09-22T04:04:22.694Z,69.72
2018-09-22T04:06:51.526Z,69.45
2018-09-22T04:09:20.501Z,69.14
2018-09-22T04:11:49.035Z,68.70
2018-09-22T04:14:17.664Z,68.93
2018-09-22T04:16:47.061Z,68.66
2018-09-22T04:19:15.537Z,68.57
2018-09-22T04:21:44.241Z,68.30
2018-09-22T04:24:19.647Z,67.62
2018-09-22T04:26:50.474Z,67.45
2018-09-22T04:29:19.633Z,67.76
2018-09-22T04:31:48.501Z,67.23
2018-09-22T04:34:16.988Z,67.15
2018-09-22T04:36:45.834Z,67.02
2018-09-22T04:39:14.413Z,66.52
2018-09-22T04:41:44.354Z,66.43
2018-09-22T04:44:13.174Z,66.29
2018-09-22T04:46:41.705Z,66.96
2018-09-22T04:49:10.179Z,66.70
2018-09-22T04:51:39.395Z,66.56
2018-09-22T04:54:07.945Z,66.07
2018-09-22T04:56:36.409Z,66.19
2018-09-22T04:59:05.496Z,66.10
2018-09-22T05:01:34.391Z,66.14
2018-09-22T05:04:02.973Z,65.99
2018-09-22T05:06:31.594Z,65.86
2018-09-22T05:09:00.336Z,65.58
2018-09-22T05:11:29.197Z,65.48
2018-09-22T05:13:57.892Z,65.41
2018-09-22T05:16:26.489Z,65.66
2018-09-22T05:18:56.319Z,65.27
2018-09-22T05:24:28.254Z,65.19
2018-09-22T05:26:57.082Z,65.08
2018-09-22T05:29:25.623Z,65.23
2018-09-22T05:31:54.967Z,65.15
2018-09-22T05:34:23.511Z,65.12
2018-09-22T05:36:51.977Z,65.25
2018-09-22T05:39:20.658Z,65.27
2018-09-22T05:41:49.273Z,65.33
2018-09-22T05:44:18.160Z,65.65
2018-09-22T05:46:47.001Z,66.10
2018-09-22T05:49:15.515Z,65.72
2018-09-22T05:51:43.982Z,65.65
2018-09-22T05:54:13.109Z,65.50
2018-09-22T05:56:42.150Z,65.77
2018-09-22T05:59:10.882Z,65.46
2018-09-22T06:01:39.758Z,65.71
2018-09-22T06:04:08.274Z,65.71
2018-09-22T06:06:36.789Z,65.54
2018-09-22T06:09:07.823Z,65.01
2018-09-22T06:11:36.880Z,64.97
2018-09-22T06:14:05.387Z,65.06
2018-09-22T06:16:34.211Z,65.24
2018-09-22T06:19:02.874Z,64.76
2018-09-22T06:21:31.366Z,64.53
2018-09-22T06:24:00.371Z,64.28
2018-09-22T06:26:29.126Z,64.55
2018-09-22T06:28:57.611Z,64.80
2018-09-22T06:31:27.257Z,64.90
2018-09-22T06:33:56.140Z,65.00
2018-09-22T06:36:24.598Z,65.05
2018-09-22T06:38:53.530Z,65.81
2018-09-22T06:41:22.560Z,64.84
2018-09-22T06:43:51.045Z,65.02
2018-09-22T06:46:20.183Z,65.98
2018-09-22T06:48:48.593Z,66.76
2018-09-22T06:51:17.062Z,67.32
2018-09-22T06:53:45.704Z,68.12
2018-09-22T06:56:14.218Z,68.60
2018-09-22T06:58:42.716Z,69.20
2018-09-22T07:01:11.269Z,70.37
2018-09-22T07:03:39.778Z,73.46
2018-09-22T07:06:08.870Z,75.69
2018-09-22T07:08:37.892Z,76.88
2018-09-22T07:11:06.642Z,77.95
2018-09-22T07:13:35.146Z,78.08
2018-09-22T07:16:03.868Z,79.17
2018-09-22T07:18:32.332Z,79.46
2018-09-22T07:21:07.889Z,80.00
2018-09-22T07:23:36.761Z,80.04
2018-09-22T07:26:05.841Z,79.82
2018-09-22T07:28:35.221Z,80.35
2018-09-22T07:31:03.678Z,79.94
2018-09-22T07:33:32.118Z,80.54
2018-09-22T07:36:01.216Z,80.50
2018-09-22T07:38:29.673Z,80.48
2018-09-22T07:40:58.321Z,80.30
2018-09-22T07:43:27.417Z,80.00
2018-09-22T07:45:55.953Z,79.77
2018-09-22T07:48:25.533Z,78.82
2018-09-22T07:50:55.557Z,76.79
2018-09-22T07:53:24.093Z,75.95
2018-09-22T07:55:52.834Z,74.52
2018-09-22T07:58:21.669Z,74.13
2018-09-22T08:00:50.134Z,73.45
2018-09-22T08:03:18.884Z,72.60
2018-09-22T08:05:47.731Z,72.29
2018-09-22T08:08:16.243Z,71.24
2018-09-22T08:10:44.735Z,71.12
2018-09-22T08:13:13.514Z,70.88
2018-09-22T08:15:42.005Z,70.33
2018-09-22T08:18:10.465Z,70.63
2018-09-22T08:20:39.041Z,68.88
2018-09-22T08:23:07.514Z,67.84
2018-09-22T08:25:36.067Z,66.07
2018-09-22T08:28:05.023Z,63.72
2018-09-22T08:30:33.874Z,62.51
2018-09-22T08:33:02.347Z,62.57
2018-09-22T08:35:31.387Z,61.11
2018-09-22T08:37:59.816Z,60.67
2018-09-22T08:40:28.502Z,61.60
2018-09-22T08:42:57.386Z,60.30
2018-09-22T08:45:26.153Z,59.32
2018-09-22T08:47:54.850Z,60.69
2018-09-22T08:50:23.779Z,59.50
2018-09-22T08:52:52.447Z,60.25
2018-09-22T08:55:21.853Z,60.22
2018-09-22T08:57:50.474Z,59.97
2018-09-22T09:00:18.940Z,60.21
2018-09-22T09:02:47.365Z,59.10
2018-09-22T09:05:15.949Z,57.83
2018-09-22T09:07:44.381Z,58.29
2018-09-22T09:10:13.132Z,57.53
2018-09-22T09:12:41.954Z,56.28
2018-09-22T09:15:10.442Z,55.36
2018-09-22T09:17:38.877Z,54.88
2018-09-22T09:20:07.713Z,54.98
2018-09-22T09:22:36.160Z,55.81
2018-09-22T09:25:04.898Z,55.82
2018-09-22T09:27:33.477Z,56.21
2018-09-22T09:30:02.193Z,56.95
2018-09-22T09:32:31.033Z,56.78
2018-09-22T09:34:59.668Z,55.45
2018-09-22T09:37:28.217Z,55.53
2018-09-22T09:39:58.177Z,55.67
2018-09-22T09:42:26.881Z,54.93
2018-09-22T09:44:56.222Z,54.79
2018-09-22T09:47:25.210Z,53.98
2018-09-22T09:49:53.861Z,51.85
2018-09-22T09:52:22.307Z,52.60
2018-09-22T09:54:50.781Z,51.86
2018-09-22T09:57:19.534Z,52.07
2018-09-22T09:59:47.996Z,53.12
2018-09-22T10:02:16.558Z,51.76
2018-09-22T10:04:45.247Z,51.04
2018-09-22T10:07:14.188Z,49.78
2018-09-22T10:09:42.643Z,50.43
2018-09-22T10:12:11.704Z,50.42
2018-09-22T10:14:40.450Z,49.98
2018-09-22T10:17:08.912Z,49.29
2018-09-22T10:19:37.765Z,49.98
2018-09-22T10:22:06.469Z,49.14
2018-09-22T10:24:35.102Z,48.92
2018-09-22T10:27:03.813Z,50.07
2018-09-22T10:29:32.474Z,49.30
2018-09-22T10:32:00.958Z,48.79
2018-09-22T10:34:29.936Z,49.13
2018-09-22T10:36:58.406Z,49.09
2018-09-22T10:39:26.865Z,47.41
2018-09-22T10:41:56.497Z,47.88
2018-09-22T10:44:25.668Z,47.63
2018-09-22T10:46:54.113Z,48.17
2018-09-22T10:49:22.710Z,48.71
2018-09-22T10:51:51.138Z,48.89
2018-09-22T10:54:19.569Z,49.18
2018-09-22T10:56:48.301Z,46.98
2018-09-22T10:59:16.787Z,45.99
2018-09-22T11:01:45.226Z,45.83
2018-09-22T11:04:14.034Z,46.01
2018-09-22T11:06:42.465Z,44.16
2018-09-22T11:09:10.911Z,43.78
2018-09-22T11:11:39.750Z,43.85
2018-09-22T11:14:08.186Z,44.02
2018-09-22T11:16:36.705Z,44.24
2018-09-22T11:19:05.494Z,44.00
2018-09-22T11:21:33.975Z,43.71
2018-09-22T11:24:02.553Z,44.60
2018-09-22T11:26:31.253Z,44.26
2018-09-22T11:28:59.689Z,44.30
2018-09-22T11:31:28.165Z,42.91
2018-09-22T11:33:57.007Z,43.63
2018-09-22T11:36:26.209Z,42.74
2018-09-22T11:38:54.729Z,42.79
2018-09-22T11:41:23.315Z,42.06
2018-09-22T11:43:51.791Z,41.59
2018-09-22T11:46:20.397Z,41.69
2018-09-22T11:48:48.973Z,41.76
2018-09-22T11:51:17.502Z,41.90
2018-09-22T11:53:45.951Z,41.70
2018-09-22T11:56:14.534Z,41.42
2018-09-22T11:58:43.013Z,42.19
2018-09-22T12:01:11.598Z,42.08
2018-09-22T12:03:40.254Z,42.02
2018-09-22T12:06:08.890Z,42.21
2018-09-22T12:08:37.299Z,42.67
2018-09-22T12:11:06.057Z,42.65
2018-09-22T12:13:34.853Z,43.09
2018-09-22T12:16:03.347Z,43.72
2018-09-22T12:18:32.217Z,42.58
2018-09-22T12:21:03.819Z,42.78
2018-09-22T12:23:32.309Z,43.87
2018-09-22T12:26:01.232Z,43.50
2018-09-22T12:28:29.689Z,42.87
2018-09-22T12:30:58.919Z,41.34
2018-09-22T12:33:27.865Z,40.56
2018-09-22T12:35:56.961Z,39.43
2018-09-22T12:38:25.654Z,39.15
2018-09-22T12:40:54.922Z,39.22
2018-09-22T12:43:23.972Z,38.32
2018-09-22T12:45:52.542Z,38.98
2018-09-22T12:48:21.542Z,38.61
2018-09-22T12:50:50.019Z,38.95
2018-09-22T12:53:18.937Z,38.05
2018-09-22T12:55:47.491Z,36.76
2018-09-22T12:58:16.014Z,36.62
2018-09-22T13:00:44.584Z,36.02
2018-09-22T13:03:13.651Z,36.01
2018-09-22T13:05:42.146Z,35.75
2018-09-22T13:08:10.669Z,36.41
2018-09-22T13:10:39.400Z,35.88
2018-09-22T13:13:07.869Z,34.35
2018-09-22T13:15:36.363Z,34.70
2018-09-22T13:18:05.130Z,36.03
2018-09-22T13:20:33.846Z,36.18
2018-09-22T13:23:02.358Z,35.44
2018-09-22T13:25:31.206Z,35.15
2018-09-22T13:27:59.661Z,34.02
2018-09-22T13:30:28.137Z,34.44
2018-09-22T13:32:56.665Z,34.50
2018-09-22T13:35:25.942Z,33.65
2018-09-22T13:37:54.568Z,33.34
2018-09-22T13:40:23.869Z,34.65
2018-09-22T13:42:52.345Z,33.89
2018-09-22T13:45:20.818Z,33.91
2018-09-22T13:47:49.670Z,33.27
2018-09-22T13:50:18.845Z,33.96
2018-09-22T13:52:47.340Z,32.99
2018-09-22T13:55:16.022Z,33.50
2018-09-22T13:57:44.482Z,33.68
2018-09-22T14:00:13.675Z,34.30
2018-09-22T14:02:42.474Z,34.39
2018-09-22T14:05:10.955Z,34.19
2018-09-22T14:07:39.456Z,34.47
2018-09-22T14:10:08.205Z,33.90
2018-09-22T14:12:36.631Z,33.70
2018-09-22T14:15:05.245Z,33.73
2018-09-22T14:17:33.998Z,33.47
2018-09-22T14:20:02.519Z,33.19
2018-09-22T14:22:31.041Z,33.12
2018-09-22T14:25:00.493Z,31.76
2018-09-22T14:27:29.053Z,32.36
2018-09-22T14:29:57.570Z,32.61
2018-09-22T14:32:27.226Z,31.91
2018-09-22T14:34:56.032Z,32.14
2018-09-22T14:37:24.897Z,31.63
2018-09-22T14:39:53.593Z,31.85
2018-09-22T14:42:23.216Z,31.81
2018-09-22T14:44:52.356Z,31.90
2018-09-22T14:47:21.485Z,32.04
2018-09-22T14:49:50.034Z,33.20
2018-09-22T14:52:18.568Z,33.35
2018-09-22T14:54:47.551Z,34.49
2018-09-22T14:57:16.014Z,33.63
2018-09-22T14:59:44.521Z,33.58
2018-09-22T15:02:13.078Z,33.96
2018-09-22T15:04:41.718Z,34.18
2018-09-22T15:07:10.197Z,33.72
2018-09-22T15:09:39.005Z,33.20
2018-09-22T15:12:07.513Z,33.73
2018-09-22T15:14:35.989Z,34.06
2018-09-22T15:17:04.538Z,34.50
2018-09-22T15:19:33.001Z,34.66
2018-09-22T15:22:01.528Z,35.09
2018-09-22T15:24:30.348Z,35.72
2018-09-22T15:26:58.792Z,36.24
2018-09-22T15:29:27.433Z,36.43
2018-09-22T15:31:56.075Z,37.16
2018-09-22T15:34:25.282Z,37.18
2018-09-22T15:36:53.793Z,37.05
2018-09-22T15:39:22.379Z,37.98
2018-09-22T15:41:50.821Z,37.93
2018-09-22T15:44:19.638Z,37.85
2018-09-22T15:46:48.801Z,38.21
2018-09-22T15:49:17.338Z,38.32
2018-09-22T15:51:46.095Z,38.80
2018-09-22T15:54:14.769Z,39.31
2018-09-22T15:56:43.373Z,39.09
2018-09-22T15:59:11.900Z,39.84
2018-09-22T16:01:40.858Z,40.35
2018-09-22T16:04:09.398Z,40.59
2018-09-22T16:06:38.541Z,40.97
2018-09-22T16:09:08.804Z,41.27
2018-09-22T16:11:37.431Z,42.24
2018-09-22T16:14:06.125Z,42.06
2018-09-22T16:16:34.644Z,42.58
2018-09-22T16:19:03.318Z,43.18
2018-09-22T16:21:32.296Z,43.20
2018-09-22T16:24:01.118Z,43.71
2018-09-22T16:26:29.626Z,44.15
2018-09-22T16:28:58.440Z,44.77
2018-09-22T16:31:27.333Z,44.89
2018-09-22T16:33:56.614Z,45.68
2018-09-22T16:36:25.717Z,46.23
2018-09-22T16:38:54.698Z,46.69
2018-09-22T16:41:23.156Z,46.72
2018-09-22T16:43:51.692Z,47.58
2018-09-22T16:46:20.517Z,48.09
2018-09-22T16:48:48.957Z,48.54
2018-09-22T16:51:17.627Z,48.96
2018-09-22T16:53:46.400Z,49.26
2018-09-22T16:56:14.846Z,49.62
2018-09-22T16:58:43.470Z,50.27
2018-09-22T17:01:11.995Z,50.37
2018-09-22T17:03:40.473Z,50.75
2018-09-22T17:06:08.955Z,50.84
2018-09-22T17:08:37.857Z,51.43
2018-09-22T17:11:06.378Z,51.60
2018-09-22T17:13:34.969Z,51.71
2018-09-22T17:16:03.883Z,52.25
2018-09-22T17:18:32.482Z,52.17
2018-09-22T17:21:00.967Z,52.47
2018-09-22T17:23:30.178Z,52.46
2018-09-22T17:25:58.739Z,53.02
2018-09-22T17:28:27.217Z,53.47
2018-09-22T17:30:56.623Z,53.51
2018-09-22T17:33:25.839Z,53.75
2018-09-22T17:35:54.573Z,53.74
2018-09-22T17:38:23.485Z,53.72
2018-09-22T17:40:51.929Z,53.94
2018-09-22T17:43:20.437Z,54.10
2018-09-22T17:45:49.031Z,53.73
2018-09-22T17:48:17.858Z,54.44
2018-09-22T17:50:46.357Z,53.80
2018-09-22T17:53:15.103Z,53.83
2018-09-22T17:55:43.769Z,54.01
2018-09-22T17:58:12.221Z,54.12
2018-09-22T18:00:41.386Z,53.92
2018-09-22T18:03:09.957Z,54.26
2018-09-22T18:05:38.474Z,54.50
2018-09-22T18:08:07.565Z,54.29
2018-09-22T18:10:36.030Z,53.77
2018-09-22T18:13:04.662Z,54.32
2018-09-22T18:15:33.397Z,54.14
2018-09-22T18:18:02.051Z,54.29
2018-09-22T18:20:30.651Z,54.37
2018-09-22T18:23:01.195Z,54.23
2018-09-22T18:25:30.001Z,54.48
2018-09-22T18:27:58.518Z,54.78
2018-09-22T18:30:27.169Z,55.10
2018-09-22T18:32:57.167Z,55.49
2018-09-22T18:35:25.816Z,54.95
2018-09-22T18:37:54.610Z,55.58
2018-09-22T18:40:23.103Z,55.73
2018-09-22T18:42:52.225Z,55.66
2018-09-22T18:45:20.786Z,55.73
2018-09-22T18:47:49.346Z,55.88
2018-09-22T18:50:18.455Z,56.78
2018-09-22T18:52:48.401Z,56.76
2018-09-22T18:55:16.889Z,57.03
2018-09-22T18:57:45.354Z,56.83
2018-09-22T19:00:14.161Z,57.01
2018-09-22T19:02:42.693Z,57.03
2018-09-22T19:05:11.325Z,57.30
2018-09-22T19:07:40.218Z,58.10
2018-09-22T19:10:09.014Z,57.71
2018-09-22T19:12:37.539Z,58.35
2018-09-22T19:15:10.476Z,58.98
2018-09-22T19:17:42.693Z,58.38
2018-09-22T19:20:16.461Z,58.00
2018-09-22T19:22:50.009Z,58.88
2018-09-22T19:25:20.615Z,58.89
2018-09-22T19:27:52.574Z,59.09
2018-09-22T19:30:25.709Z,58.94
2018-09-22T19:32:57.604Z,58.98
2018-09-22T19:35:35.658Z,59.40
2018-09-22T19:38:08.538Z,59.17
2018-09-22T19:40:42.676Z,59.08
2018-09-22T19:43:17.765Z,59.35
2018-09-22T19:45:51.292Z,59.47
2018-09-22T19:48:56.225Z,59.66
2018-09-22T19:51:27.563Z,59.67
2018-09-22T19:53:57.188Z,59.49
2018-09-22T19:56:25.722Z,59.46
2018-09-22T19:58:54.174Z,59.67
2018-09-22T20:01:22.875Z,60.08
2018-09-22T20:03:51.354Z,60.29
2018-09-22T20:06:19.857Z,60.42
2018-09-22T20:08:48.514Z,60.62
2018-09-22T20:11:16.994Z,60.70
2018-09-22T20:13:45.518Z,60.74
2018-09-22T20:16:14.482Z,60.92
2018-09-22T20:18:42.921Z,60.67
2018-09-22T20:21:11.431Z,60.80
2018-09-22T20:23:40.579Z,61.45
2018-09-22T20:26:09.041Z,61.03
2018-09-22T20:28:37.644Z,61.64
2018-09-22T20:31:06.394Z,61.33
2018-09-22T20:33:34.963Z,61.40
2018-09-22T20:36:03.519Z,61.52
2018-09-22T20:38:32.221Z,61.57
2018-09-22T20:41:00.701Z,61.34
2018-09-22T20:43:29.293Z,61.71
2018-09-22T20:45:57.973Z,61.52
2018-09-22T20:48:27.187Z,61.29
2018-09-22T20:50:57.038Z,61.76
2018-09-22T20:53:26.180Z,62.09
2018-09-22T20:55:54.653Z,61.81
2018-09-22T20:58:23.132Z,61.94
2018-09-22T21:00:51.836Z,61.98
2018-09-22T21:03:20.292Z,62.13
2018-09-22T21:05:48.819Z,62.26
2018-09-22T21:08:17.646Z,62.35
2018-09-22T21:10:46.149Z,62.75
2018-09-22T21:13:14.721Z,63.36
2018-09-22T21:15:43.654Z,63.83
2018-09-22T21:18:12.120Z,64.14
2018-09-22T21:20:40.707Z,63.97
2018-09-22T21:23:09.407Z,64.33
2018-09-22T21:25:37.948Z,64.62
2018-09-22T21:28:06.473Z,64.88
2018-09-22T21:30:35.795Z,64.63
2018-09-22T21:33:04.293Z,65.11
2018-09-22T21:35:32.780Z,64.77
2018-09-22T21:38:01.574Z,65.38
2018-09-22T21:40:30.181Z,65.06
2018-09-22T21:42:58.642Z,65.40
2018-09-22T21:45:27.645Z,65.85
2018-09-22T21:47:56.157Z,66.09
2018-09-22T21:50:25.010Z,65.99
2018-09-22T21:52:54.237Z,66.33
2018-09-22T21:55:22.986Z,66.76
2018-09-22T21:57:51.726Z,66.72
2018-09-22T22:00:20.275Z,66.66
2018-09-22T22:02:48.728Z,67.26
2018-09-22T22:05:17.214Z,67.47
2018-09-22T22:07:45.818Z,67.06
2018-09-22T22:10:14.282Z,67.30
2018-09-22T22:12:43.114Z,67.49
2018-09-22T22:15:12.073Z,67.07
2018-09-22T22:17:40.704Z,66.93
2018-09-22T22:20:09.194Z,67.30
2018-09-22T22:22:37.965Z,67.23
2018-09-22T22:25:06.450Z,67.25
2018-09-22T22:27:35.221Z,67.57
2018-09-22T22:30:03.782Z,67.94
2018-09-22T22:32:32.223Z,67.58
2018-09-22T22:35:00.986Z,67.89
2018-09-22T22:37:30.022Z,68.00
2018-09-22T22:39:59.010Z,68.26
2018-09-22T22:42:27.550Z,68.59
2018-09-22T22:44:56.330Z,68.64
2018-09-22T22:47:24.862Z,68.66
2018-09-22T22:50:04.583Z,68.52
2018-09-22T22:52:33.242Z,68.79
2018-09-22T22:55:02.985Z,69.10
2018-09-22T22:57:32.162Z,68.77
2018-09-22T23:00:00.591Z,69.13
2018-09-22T23:02:29.770Z,68.93
2018-09-22T23:04:58.672Z,69.11
2018-09-22T23:07:27.694Z,69.44
2018-09-22T23:09:57.337Z,69.39
2018-09-22T23:12:25.817Z,69.43
2018-09-22T23:14:54.641Z,69.60
2018-09-22T23:17:23.689Z,70.01
2018-09-22T23:19:52.133Z,69.74
2018-09-22T23:22:21.340Z,70.01
2018-09-22T23:24:49.895Z,70.27
2018-09-22T23:27:18.340Z,70.33
2018-09-22T23:29:46.802Z,70.19
2018-09-22T23:32:15.933Z,70.69
2018-09-22T23:34:44.654Z,70.54
2018-09-22T23:37:13.100Z,70.54
2018-09-22T23:39:41.810Z,70.99
2018-09-22T23:42:10.322Z,71.03
2018-09-22T23:44:38.933Z,70.99
2018-09-22T23:47:07.613Z,71.17
2018-09-22T23:49:36.049Z,71.53
2018-09-22T23:52:04.514Z,71.39
2018-09-22T23:54:33.449Z,71.39
2018-09-22T23:57:01.945Z,71.70
2018-09-22T23:59:30.592Z,72.07
